Time,TemperatureF,DewpointF,PressureIn,WindDirection,WindDirectionDegrees,WindSpeedMPH,WindSpeedGustMPH,Humidity,HourlyPrecipIn,Conditions,Clouds,dailyrainin,SoftwareType,DateUTC
2013-02-18 00:02:00,26.2,17.0,30.32,NW,321,0.0,0.0,69,0.00,,,0.00,weatherlink.com 1.10,2013-02-18 05:02:00,
2013-02-18 00:17:00,25.7,19.0,30.32,NW,321,0.0,0.0,76,0.00,,,0.00,weatherlink.com 1.10,2013-02-18 05:17:00,
2013-02-18 00:32:00,25.4,19.0,30.33,NW,321,0.0,0.0,78,0.00,,,0.00,weatherlink.com 1.10,2013-02-18 05:32:00,
2013-02-18 00:47:00,25.3,20.0,30.33,NW,321,0.0,0.0,79,0.00,,,0.00,weatherlink.com 1.10,2013-02-18 05:47:00,
2013-02-18 01:02:00,24.9,19.0,30.33,NW,321,0.0,0.0,79,0.00,,,0.00,weatherlink.com 1.10,2013-02-18 06:02:00,
2013-02-18 01:18:00,24.8,20.0,30.33,NW,321,0.0,0.0,81,0.00,,,0.00,weatherlink.com 1.10,2013-02-18 06:18:00,
2013-02-18 01:33:00,24.6,20.0,30.34,NW,321,0.0,0.0,81,0.00,,,0.00,weatherlink.com 1.10,2013-02-18 06:33:00,
2013-02-18 01:48:00,24.2,19.0,30.34,NW,321,0.0,0.0,82,0.00,,,0.00,weatherlink.com 1.10,2013-02-18 06:48:00,
2013-02-18 02:03:00,23.9,20.0,30.34,NW,321,0.0,0.0,83,0.00,,,0.00,weatherlink.com 1.10,2013-02-18 07:03:00,
2013-02-18 02:18:00,23.7,19.0,30.34,NW,321,0.0,0.0,81,0.00,,,0.00,weatherlink.com 1.10,2013-02-18 07:18:00,
2013-02-18 02:33:00,23.5,19.0,30.34,NW,321,0.0,0.0,81,0.00,,,0.00,weatherlink.com 1.10,2013-02-18 07:33:00,
2013-02-18 02:48:00,23.3,18.0,30.34,NW,321,0.0,0.0,80,0.00,,,0.00,weatherlink.com 1.10,2013-02-18 07:48:00,
2013-02-18 03:03:00,23.2,18.0,30.34,NW,321,0.0,0.0,80,0.00,,,0.00,weatherlink.com 1.10,2013-02-18 08:03:00,
2013-02-18 03:18:00,23.3,19.0,30.35,NW,321,0.0,0.0,83,0.00,,,0.00,weatherlink.com 1.10,2013-02-18 08:18:00,
2013-02-18 03:33:00,23.4,19.0,30.35,NW,321,0.0,0.0,84,0.00,,,0.00,weatherlink.com 1.10,2013-02-18 08:33:00,
2013-02-18 03:48:00,23.3,19.0,30.35,NW,321,0.0,0.0,83,0.00,,,0.00,weatherlink.com 1.10,2013-02-18 08:48:00,
2013-02-18 04:03:00,23.2,18.0,30.35,NW,321,0.0,0.0,81,0.00,,,0.00,weatherlink.com 1.10,2013-02-18 09:03:00,
2013-02-18 04:18:00,23.2,18.0,30.36,NW,321,0.0,0.0,81,0.00,,,0.00,weatherlink.com 1.10,2013-02-18 09:18:00,
2013-02-18 04:33:00,23.3,19.0,30.36,NW,321,0.0,0.0,83,0.00,,,0.00,weatherlink.com 1.10,2013-02-18 09:33:00,
2013-02-18 04:48:00,23.3,19.0,30.37,NW,321,0.0,0.0,83,0.00,,,0.00,weatherlink.com 1.10,2013-02-18 09:48:00,
2013-02-18 05:04:00,23.1,18.0,30.37,NW,321,0.0,0.0,82,0.00,,,0.00,weatherlink.com 1.10,2013-02-18 10:04:00,
2013-02-18 05:18:00,23.3,19.0,30.37,NW,321,0.0,0.0,83,0.00,,,0.00,weatherlink.com 1.10,2013-02-18 10:18:00,
2013-02-18 05:33:00,23.3,19.0,30.37,NW,321,0.0,0.0,83,0.00,,,0.00,weatherlink.com 1.10,2013-02-18 10:33:00,
2013-02-18 05:48:00,23.0,19.0,30.38,NW,321,0.0,0.0,83,0.00,,,0.00,weatherlink.com 1.10,2013-02-18 10:48:00,
2013-02-18 06:03:00,22.9,18.0,30.38,NW,321,0.0,0.0,82,0.00,,,0.00,weatherlink.com 1.10,2013-02-18 11:03:00,
2013-02-18 06:18:00,22.7,18.0,30.38,NW,321,0.0,0.0,83,0.00,,,0.00,weatherlink.com 1.10,2013-02-18 11:18:00,
2013-02-18 06:33:00,22.7,18.0,30.38,NW,321,0.0,0.0,83,0.00,,,0.00,weatherlink.com 1.10,2013-02-18 11:33:00,
2013-02-18 06:48:00,22.9,19.0,30.39,NW,321,0.0,0.0,83,0.00,,,0.00,weatherlink.com 1.10,2013-02-18 11:48:00,
2013-02-18 07:03:00,22.7,19.0,30.39,NW,321,0.0,0.0,85,0.00,,,0.00,weatherlink.com 1.10,2013-02-18 12:03:00,
2013-02-18 07:18:00,22.9,19.0,30.39,NW,321,0.0,0.0,85,0.00,,,0.00,weatherlink.com 1.10,2013-02-18 12:18:00,
2013-02-18 07:33:00,22.8,19.0,30.39,NW,321,0.0,0.0,86,0.00,,,0.00,weatherlink.com 1.10,2013-02-18 12:33:00,
2013-02-18 07:48:00,23.3,20.0,30.40,NW,321,0.0,0.0,86,0.00,,,0.00,weatherlink.com 1.10,2013-02-18 12:48:00,
2013-02-18 08:03:00,24.1,21.0,30.41,NW,321,0.0,0.0,87,0.00,,,0.00,weatherlink.com 1.10,2013-02-18 13:03:00,
2013-02-18 08:18:00,25.4,22.0,30.41,NW,321,0.0,0.0,87,0.00,,,0.00,weatherlink.com 1.10,2013-02-18 13:18:00,
2013-02-18 08:33:00,26.6,22.0,30.42,NW,321,0.0,0.0,84,0.00,,,0.00,weatherlink.com 1.10,2013-02-18 13:33:00,
2013-02-18 08:48:00,28.5,22.0,30.42,NNW,330,0.0,0.0,76,0.00,,,0.00,weatherlink.com 1.10,2013-02-18 13:48:00,
2013-02-18 09:03:00,31.1,24.0,30.42,East,84,1.0,2.0,76,0.00,,,0.00,weatherlink.com 1.10,2013-02-18 14:03:00,
2013-02-18 09:18:00,33.2,25.0,30.42,East,99,0.0,2.0,73,0.00,,,0.00,weatherlink.com 1.10,2013-02-18 14:18:00,
2013-02-18 09:34:00,35.2,26.0,30.42,East,98,0.0,2.0,68,0.00,,,0.00,weatherlink.com 1.10,2013-02-18 14:34:00,
2013-02-18 09:49:00,37.1,25.0,30.42,East,85,1.0,3.0,62,0.00,,,0.00,weatherlink.com 1.10,2013-02-18 14:49:00,
2013-02-18 10:04:00,38.2,24.0,30.42,SSW,205,0.0,2.0,56,0.00,,,0.00,weatherlink.com 1.10,2013-02-18 15:04:00,
2013-02-18 10:19:00,39.7,24.0,30.42,NE,38,0.0,4.0,53,0.00,,,0.00,weatherlink.com 1.10,2013-02-18 15:19:00,
2013-02-18 10:34:00,42.2,21.0,30.42,WNW,289,1.0,5.0,43,0.00,,,0.00,weatherlink.com 1.10,2013-02-18 15:34:00,
2013-02-18 10:49:00,44.7,23.0,30.41,SW,232,3.0,6.0,42,0.00,,,0.00,weatherlink.com 1.10,2013-02-18 15:49:00,
2013-02-18 11:04:00,45.9,25.0,30.41,SW,235,5.0,6.0,44,0.00,,,0.00,weatherlink.com 1.10,2013-02-18 16:04:00,
2013-02-18 11:19:00,47.5,24.0,30.41,SSW,207,3.0,6.0,40,0.00,,,0.00,weatherlink.com 1.10,2013-02-18 16:19:00,
2013-02-18 11:34:00,48.7,21.0,30.41,North,351,1.0,9.0,34,0.00,,,0.00,weatherlink.com 1.10,2013-02-18 16:34:00,
2013-02-18 11:49:00,50.0,22.0,30.40,SW,217,3.0,7.0,34,0.00,,,0.00,weatherlink.com 1.10,2013-02-18 16:49:00,
2013-02-18 12:04:00,51.1,22.0,30.39,SW,224,3.0,11.0,32,0.00,,,0.00,weatherlink.com 1.10,2013-02-18 17:04:00,
2013-02-18 12:19:00,51.6,22.0,30.39,SW,227,1.0,10.0,32,0.00,,,0.00,weatherlink.com 1.10,2013-02-18 17:19:00,
2013-02-18 12:34:00,52.5,22.0,30.38,WSW,248,1.0,8.0,30,0.00,,,0.00,weatherlink.com 1.10,2013-02-18 17:34:00,
2013-02-18 12:49:00,53.3,23.0,30.37,WSW,240,3.0,9.0,31,0.00,,,0.00,weatherlink.com 1.10,2013-02-18 17:49:00,
2013-02-18 13:04:00,53.0,24.0,30.36,West,261,2.0,12.0,33,0.00,,,0.00,weatherlink.com 1.10,2013-02-18 18:04:00,
2013-02-18 13:19:00,54.2,23.0,30.35,WNW,294,1.0,7.0,30,0.00,,,0.00,weatherlink.com 1.10,2013-02-18 18:19:00,
2013-02-18 13:34:00,54.6,25.0,30.34,WSW,258,1.0,11.0,32,0.00,,,0.00,weatherlink.com 1.10,2013-02-18 18:34:00,
2013-02-18 13:49:00,55.1,24.0,30.33,SSE,163,4.0,10.0,30,0.00,,,0.00,weatherlink.com 1.10,2013-02-18 18:49:00,
2013-02-18 14:05:00,55.5,27.0,30.33,SW,223,5.0,11.0,34,0.00,,,0.00,weatherlink.com 1.10,2013-02-18 19:05:00,
2013-02-18 14:20:00,56.0,27.0,30.32,SW,232,2.0,9.0,33,0.00,,,0.00,weatherlink.com 1.10,2013-02-18 19:20:00,
2013-02-18 14:35:00,56.1,25.0,30.32,SSW,212,5.0,9.0,30,0.00,,,0.00,weatherlink.com 1.10,2013-02-18 19:35:00,
2013-02-18 14:50:00,56.2,26.0,30.32,SW,225,1.0,13.0,31,0.00,,,0.00,weatherlink.com 1.10,2013-02-18 19:50:00,
2013-02-18 15:05:00,56.8,27.0,30.31,SW,235,1.0,8.0,32,0.00,,,0.00,weatherlink.com 1.10,2013-02-18 20:05:00,
2013-02-18 15:20:00,57.2,27.0,30.31,SSW,197,8.0,8.0,32,0.00,,,0.00,weatherlink.com 1.10,2013-02-18 20:20:00,
2013-02-18 15:35:00,56.8,27.0,30.30,SW,229,3.0,9.0,32,0.00,,,0.00,weatherlink.com 1.10,2013-02-18 20:35:00,
2013-02-18 15:50:00,58.1,27.0,30.30,SW,217,3.0,9.0,30,0.00,,,0.00,weatherlink.com 1.10,2013-02-18 20:50:00,
2013-02-18 16:05:00,58.2,27.0,30.29,SW,217,3.0,10.0,30,0.00,,,0.00,weatherlink.com 1.10,2013-02-18 21:05:00,
2013-02-18 16:20:00,57.5,27.0,30.29,WSW,242,3.0,8.0,31,0.00,,,0.00,weatherlink.com 1.10,2013-02-18 21:20:00,
2013-02-18 16:35:00,57.0,26.0,30.29,SW,222,1.0,9.0,30,0.00,,,0.00,weatherlink.com 1.10,2013-02-18 21:35:00,
2013-02-18 16:50:00,57.1,27.0,30.29,West,266,5.0,8.0,31,0.00,,,0.00,weatherlink.com 1.10,2013-02-18 21:50:00,
2013-02-18 17:05:00,55.6,27.0,30.29,WSW,247,1.0,7.0,33,0.00,,,0.00,weatherlink.com 1.10,2013-02-18 22:05:00,
2013-02-18 17:20:00,54.1,25.0,30.28,SW,217,2.0,7.0,32,0.00,,,0.00,weatherlink.com 1.10,2013-02-18 22:20:00,
2013-02-18 17:35:00,53.7,26.0,30.28,SSW,204,2.0,7.0,35,0.00,,,0.00,weatherlink.com 1.10,2013-02-18 22:35:00,
2013-02-18 17:50:00,53.1,26.0,30.28,WSW,257,0.0,5.0,35,0.00,,,0.00,weatherlink.com 1.10,2013-02-18 22:50:00,
2013-02-18 18:05:00,52.0,26.0,30.28,SW,234,1.0,3.0,36,0.00,,,0.00,weatherlink.com 1.10,2013-02-18 23:05:00,
2013-02-18 18:20:00,51.0,25.0,30.28,SSW,207,3.0,4.0,37,0.00,,,0.00,weatherlink.com 1.10,2013-02-18 23:20:00,
2013-02-18 18:35:00,50.1,25.0,30.28,SW,219,0.0,3.0,38,0.00,,,0.00,weatherlink.com 1.10,2013-02-18 23:35:00,
2013-02-18 18:50:00,48.8,25.0,30.28,SW,221,0.0,2.0,39,0.00,,,0.00,weatherlink.com 1.10,2013-02-18 23:50:00,
2013-02-18 19:05:00,47.5,25.0,30.28,SW,221,0.0,1.0,42,0.00,,,0.00,weatherlink.com 1.10,2013-02-19 00:05:00,
2013-02-18 19:20:00,46.1,26.0,30.28,SW,221,0.0,1.0,45,0.00,,,0.00,weatherlink.com 1.10,2013-02-19 00:20:00,
2013-02-18 19:35:00,46.1,26.0,30.28,SW,220,0.0,3.0,46,0.00,,,0.00,weatherlink.com 1.10,2013-02-19 00:35:00,
2013-02-18 19:50:00,46.5,25.0,30.28,SW,226,2.0,2.0,44,0.00,,,0.00,weatherlink.com 1.10,2013-02-19 00:50:00,
2013-02-18 20:05:00,46.4,25.0,30.27,SW,221,1.0,3.0,44,0.00,,,0.00,weatherlink.com 1.10,2013-02-19 01:05:00,
2013-02-18 20:20:00,46.4,25.0,30.28,WSW,244,0.0,3.0,44,0.00,,,0.00,weatherlink.com 1.10,2013-02-19 01:20:00,
2013-02-18 20:35:00,45.4,26.0,30.28,SW,233,0.0,2.0,46,0.00,,,0.00,weatherlink.com 1.10,2013-02-19 01:35:00,
2013-02-18 20:50:00,44.3,25.0,30.27,SW,233,0.0,0.0,47,0.00,,,0.00,weatherlink.com 1.10,2013-02-19 01:50:00,
2013-02-18 21:05:00,43.7,25.0,30.28,SW,217,1.0,3.0,49,0.00,,,0.00,weatherlink.com 1.10,2013-02-19 02:05:00,
2013-02-18 21:20:00,44.3,26.0,30.28,SW,219,1.0,4.0,49,0.00,,,0.00,weatherlink.com 1.10,2013-02-19 02:20:00,
2013-02-18 21:35:00,44.3,26.0,30.28,SW,236,3.0,4.0,48,0.00,,,0.00,weatherlink.com 1.10,2013-02-19 02:35:00,
2013-02-18 21:50:00,44.2,25.0,30.28,SW,220,1.0,3.0,48,0.00,,,0.00,weatherlink.com 1.10,2013-02-19 02:50:00,
2013-02-18 22:05:00,44.0,26.0,30.28,WSW,241,1.0,3.0,49,0.00,,,0.00,weatherlink.com 1.10,2013-02-19 03:05:00,
2013-02-18 22:20:00,43.8,26.0,30.26,SW,215,1.0,3.0,49,0.00,,,0.00,weatherlink.com 1.10,2013-02-19 03:20:00,
2013-02-18 22:35:00,43.3,26.0,30.26,SSW,205,2.0,4.0,50,0.00,,,0.00,weatherlink.com 1.10,2013-02-19 03:35:00,
2013-02-18 22:50:00,43.1,25.0,30.26,SW,220,2.0,4.0,50,0.00,,,0.00,weatherlink.com 1.10,2013-02-19 03:50:00,
2013-02-18 23:05:00,42.7,26.0,30.26,WSW,250,1.0,4.0,51,0.00,,,0.00,weatherlink.com 1.10,2013-02-19 04:05:00,
2013-02-18 23:20:00,42.3,26.0,30.25,SW,235,0.0,2.0,52,0.00,,,0.00,weatherlink.com 1.10,2013-02-19 04:20:00,
2013-02-18 23:35:00,41.7,26.0,30.25,WSW,244,5.0,5.0,53,0.00,,,0.00,weatherlink.com 1.10,2013-02-19 04:35:00,
2013-02-18 23:50:00,41.8,26.0,30.25,SW,218,2.0,5.0,53,0.00,,,0.00,weatherlink.com 1.10,2013-02-19 04:50:00,